Time;durP1;ratioP1;P1;durP2;ratioP2;P2;SDS_P1;SDS_P2;PMS_P1;PMS_P2;Temp;Humidity;BMP_temperature;BMP_pressure;BME280_temperature;BME280_humidity;BME280_pressure;Samples;Min_cycle;Max_cycle;Signal;HPM_P1;HPM_P2
2021/11/28 00:01:37;;;;;;;4.10;2.97;;;3.60;99.90;;;;;;5013607;28;20156;-46
2021/11/28 00:04:03;;;;;;;3.13;2.83;;;3.60;99.90;;;;;;5013071;28;20195;-45
2021/11/28 00:06:30;;;;;;;3.20;2.90;;;3.60;99.90;;;;;;5013519;28;20255;-46
2021/11/28 00:11:58;;;;;;;3.17;2.70;;;3.70;99.90;;;;;;4990105;28;20184;-44
2021/11/28 00:14:24;;;;;;;3.67;3.20;;;3.60;99.90;;;;;;5012838;28;20290;-44
2021/11/28 00:16:49;;;;;;;2.83;2.57;;;3.70;99.90;;;;;;5013037;28;20211;-45
2021/11/28 00:19:15;;;;;;;3.00;2.57;;;3.60;99.90;;;;;;5013105;28;20196;-49
2021/11/28 00:21:40;;;;;;;2.93;2.70;;;3.60;99.90;;;;;;5012768;28;20736;-49
2021/11/28 00:24:06;;;;;;;2.73;2.40;;;3.60;99.90;;;;;;5013097;28;20196;-45
2021/11/28 00:26:32;;;;;;;2.73;2.50;;;3.70;99.90;;;;;;5012563;28;20669;-45
2021/11/28 00:28:58;;;;;;;2.50;2.30;;;3.60;99.90;;;;;;5012869;28;20183;-47
2021/11/28 00:31:24;;;;;;;2.77;2.43;;;3.60;99.90;;;;;;5021563;28;20198;-45
2021/11/28 00:33:50;;;;;;;2.67;2.47;;;3.60;99.90;;;;;;5032699;28;20168;-44
2021/11/28 00:36:15;;;;;;;2.70;2.50;;;3.60;99.90;;;;;;5032031;28;20172;-44
2021/11/28 00:38:41;;;;;;;2.33;2.13;;;3.60;99.90;;;;;;5032386;28;20204;-45
2021/11/28 00:41:06;;;;;;;2.97;2.67;;;3.60;99.90;;;;;;5032606;28;20197;-51
2021/11/28 00:43:32;;;;;;;3.00;2.70;;;3.60;99.90;;;;;;5032223;28;20712;-44
2021/11/28 00:45:58;;;;;;;2.40;2.20;;;3.60;99.90;;;;;;5032005;28;20210;-45
2021/11/28 00:48:28;;;;;;;2.60;2.40;;;3.60;99.90;;;;;;5032079;28;20172;-45
2021/11/28 00:51:10;;;;;;;2.33;2.13;;;3.60;99.90;;;;;;5032419;28;20168;-45
2021/11/28 00:53:36;;;;;;;2.70;2.50;;;3.60;99.90;;;;;;5032138;28;20164;-45
2021/11/28 00:56:02;;;;;;;2.93;2.63;;;3.60;99.90;;;;;;5031851;28;20194;-47
2021/11/28 00:58:27;;;;;;;2.73;2.53;;;3.60;99.90;;;;;;5031795;28;20204;-48
2021/11/28 01:00:53;;;;;;;2.60;2.40;;;3.60;99.90;;;;;;5032261;28;20218;-44
2021/11/28 01:03:19;;;;;;;2.80;2.50;;;3.60;99.90;;;;;;5031936;28;20163;-48
2021/11/28 01:05:44;;;;;;;2.53;2.33;;;3.60;99.90;;;;;;5031609;28;20222;-47
2021/11/28 01:08:10;;;;;;;3.20;2.73;;;3.60;99.90;;;;;;5032092;28;20716;-46
2021/11/28 01:10:35;;;;;;;3.03;2.73;;;3.60;99.90;;;;;;5031743;28;20254;-45
2021/11/28 01:13:01;;;;;;;2.97;2.70;;;3.60;99.90;;;;;;5031943;28;20233;-44
2021/11/28 01:15:27;;;;;;;3.27;2.80;;;3.60;99.90;;;;;;5031288;28;20282;-51
2021/11/28 01:17:52;;;;;;;3.10;2.80;;;3.60;99.90;;;;;;5031834;28;20686;-46
2021/11/28 01:20:18;;;;;;;3.30;2.93;;;3.60;99.90;;;;;;5031582;28;20251;-45
2021/11/28 01:22:43;;;;;;;3.10;2.80;;;3.60;99.90;;;;;;5031802;28;20168;-48
2021/11/28 01:25:12;;;;;;;2.90;2.70;;;3.60;99.90;;;;;;5031430;28;20191;-49
2021/11/28 01:27:39;;;;;;;3.20;2.90;;;3.60;99.90;;;;;;5031545;28;20179;-46
2021/11/28 01:30:06;;;;;;;3.17;2.57;;;3.60;99.90;;;;;;5031781;28;20263;-48
2021/11/28 01:32:32;;;;;;;2.70;2.50;;;3.60;99.90;;;;;;5013174;28;20192;-48
2021/11/28 01:34:57;;;;;;;2.80;2.50;;;3.60;99.90;;;;;;5011812;28;20241;-44
2021/11/28 01:37:23;;;;;;;2.60;2.40;;;3.60;99.90;;;;;;5005720;28;20291;-45
2021/11/28 01:39:49;;;;;;;2.63;2.43;;;3.60;99.90;;;;;;5011774;28;20703;-47
2021/11/28 01:42:14;;;;;;;2.63;2.43;;;3.60;99.90;;;;;;5011606;28;20255;-51
2021/11/28 01:44:40;;;;;;;2.40;2.20;;;3.50;99.90;;;;;;5016060;28;20196;-45
2021/11/28 01:47:06;;;;;;;2.73;2.53;;;3.60;99.90;;;;;;5018347;28;20168;-45
2021/11/28 01:49:32;;;;;;;2.50;2.30;;;3.50;99.90;;;;;;5018117;28;20168;-46
2021/11/28 01:51:57;;;;;;;2.73;2.40;;;3.50;99.90;;;;;;5015119;28;20185;-45
2021/11/28 01:54:23;;;;;;;2.53;2.33;;;3.50;99.90;;;;;;5014423;28;20247;-50
2021/11/28 01:56:51;;;;;;;2.83;2.40;;;3.50;99.90;;;;;;4998234;28;20288;-44
2021/11/28 01:59:17;;;;;;;3.10;2.80;;;3.60;99.90;;;;;;4998096;28;20196;-44
2021/11/28 02:01:44;;;;;;;2.70;2.50;;;3.60;99.90;;;;;;4998540;28;20168;-44
2021/11/28 02:04:14;;;;;;;2.60;2.27;;;3.60;99.90;;;;;;4998491;28;20197;-45
2021/11/28 02:06:40;;;;;;;3.03;2.60;;;3.60;99.90;;;;;;4998284;28;20165;-51
2021/11/28 02:09:06;;;;;;;2.93;2.63;;;3.60;99.90;;;;;;4998600;28;20231;-44
2021/11/28 02:11:32;;;;;;;2.67;2.47;;;3.60;99.90;;;;;;4998189;28;20187;-44
2021/11/28 02:13:57;;;;;;;3.30;2.90;;;3.60;99.90;;;;;;4998441;28;20177;-49
2021/11/28 02:16:23;;;;;;;3.03;2.70;;;3.60;99.90;;;;;;5024325;23;20223;-52
2021/11/28 02:18:50;;;;;;;3.10;2.80;;;3.60;99.90;;;;;;5005205;28;20254;-50
2021/11/28 02:21:16;;;;;;;3.00;2.70;;;3.60;99.90;;;;;;5014928;28;20183;-45
2021/11/28 02:23:42;;;;;;;2.63;2.43;;;3.60;99.90;;;;;;5020334;28;20559;-52
2021/11/28 02:26:13;;;;;;;2.83;2.63;;;3.60;99.90;;;;;;5004842;28;20268;-48
2021/11/28 02:28:39;;;;;;;3.87;3.00;;;3.60;99.90;;;;;;4995501;28;20216;-50
2021/11/28 02:31:05;;;;;;;3.30;2.70;;;3.60;99.90;;;;;;4998047;28;20181;-52
2021/11/28 02:33:31;;;;;;;2.57;2.30;;;3.60;99.90;;;;;;4992122;28;20184;-52
2021/11/28 02:35:58;;;;;;;3.10;2.80;;;3.60;99.90;;;;;;4997764;28;20200;-52
2021/11/28 02:38:24;;;;;;;2.87;2.60;;;3.50;99.90;;;;;;4998143;28;20197;-52
2021/11/28 02:40:49;;;;;;;2.90;2.60;;;3.50;99.90;;;;;;4998288;28;20181;-48
2021/11/28 02:43:15;;;;;;;2.53;2.33;;;3.50;99.90;;;;;;4998044;28;20188;-52
2021/11/28 02:45:42;;;;;;;2.80;2.50;;;3.50;99.90;;;;;;4997939;28;20199;-51
2021/11/28 02:48:11;;;;;;;2.70;2.50;;;3.40;99.90;;;;;;4997984;28;20653;-49
2021/11/28 02:50:37;;;;;;;2.77;2.53;;;3.40;99.90;;;;;;4992596;28;20597;-52
2021/11/28 02:53:06;;;;;;;2.67;2.47;;;3.40;99.90;;;;;;4997499;28;20253;-53
2021/11/28 02:55:36;;;;;;;2.50;2.30;;;3.40;99.90;;;;;;4997344;28;20671;-52
2021/11/28 02:58:04;;;;;;;2.50;2.10;;;3.40;99.90;;;;;;4997479;28;20201;-51
2021/11/28 03:00:32;;;;;;;2.40;2.20;;;3.40;99.90;;;;;;4995566;28;20173;-52
2021/11/28 03:02:58;;;;;;;2.47;2.27;;;3.30;99.90;;;;;;4995197;28;20174;-51
2021/11/28 03:05:24;;;;;;;2.60;2.40;;;3.30;99.90;;;;;;4994699;28;20189;-49
2021/11/28 03:07:49;;;;;;;3.13;2.83;;;3.30;99.90;;;;;;4994894;28;20870;-52
2021/11/28 03:10:37;;;;;;;2.83;2.60;;;3.30;99.90;;;;;;4994551;28;20181;-47
2021/11/28 03:13:34;;;;;;;2.70;2.50;;;3.30;99.90;;;;;;4978968;28;20216;-49
2021/11/28 03:16:12;;;;;;;2.70;2.50;;;3.30;99.90;;;;;;4992545;28;20221;-50
2021/11/28 03:18:39;;;;;;;2.40;2.20;;;3.30;99.90;;;;;;4994688;28;20228;-50
2021/11/28 03:21:14;;;;;;;2.60;2.40;;;3.30;99.90;;;;;;4994338;28;20207;-47
2021/11/28 03:23:42;;;;;;;2.90;2.70;;;3.30;99.90;;;;;;4994769;28;20576;-50
2021/11/28 03:26:13;;;;;;;2.60;2.40;;;3.30;99.90;;;;;;4988780;28;20193;-52
2021/11/28 03:28:45;;;;;;;3.17;2.57;;;3.30;99.90;;;;;;4994062;28;20608;-49
2021/11/28 03:31:11;;;;;;;3.00;2.70;;;3.30;99.90;;;;;;4994628;28;20667;-51
2021/11/28 03:33:39;;;;;;;3.33;2.90;;;3.40;99.90;;;;;;4994493;28;20209;-52
2021/11/28 03:36:05;;;;;;;3.50;3.07;;;3.40;99.90;;;;;;4994049;28;20196;-52
2021/11/28 03:38:31;;;;;;;3.50;3.20;;;3.70;99.90;;;;;;4994137;28;20188;-47
2021/11/28 03:40:57;;;;;;;3.50;3.20;;;3.40;99.90;;;;;;4994501;28;20543;-51
2021/11/28 03:43:23;;;;;;;4.00;3.40;;;3.40;99.90;;;;;;4994006;28;20264;-47
2021/11/28 03:45:49;;;;;;;3.50;3.20;;;3.40;99.90;;;;;;4993875;28;20193;-51
2021/11/28 03:48:14;;;;;;;3.80;3.37;;;3.40;99.90;;;;;;4993951;28;20197;-48
2021/11/28 03:50:41;;;;;;;3.70;3.37;;;3.40;99.90;;;;;;4994184;28;20177;-46
2021/11/28 03:53:06;;;;;;;4.27;3.73;;;3.40;99.90;;;;;;4993826;28;20169;-52
2021/11/28 03:55:32;;;;;;;4.20;3.77;;;3.50;99.90;;;;;;4993798;28;20626;-50
2021/11/28 03:57:58;;;;;;;4.50;3.30;;;3.50;99.90;;;;;;4993840;28;20655;-51
2021/11/28 04:00:23;;;;;;;4.57;3.50;;;3.50;99.90;;;;;;4994000;28;20191;-51
2021/11/28 04:02:49;;;;;;;4.60;3.47;;;3.50;99.90;;;;;;4994026;28;20564;-51
2021/11/28 04:05:15;;;;;;;3.97;3.40;;;3.50;99.90;;;;;;4993470;28;20173;-50
2021/11/28 04:07:41;;;;;;;3.50;3.20;;;3.50;99.90;;;;;;4993321;28;20287;-47
2021/11/28 04:10:08;;;;;;;3.50;3.20;;;3.50;99.90;;;;;;4993664;28;20184;-51
2021/11/28 04:12:34;;;;;;;3.40;3.10;;;3.50;99.90;;;;;;4993842;28;20232;-48
2021/11/28 04:15:00;;;;;;;3.23;2.93;;;3.50;99.90;;;;;;4993209;28;20584;-51
2021/11/28 04:17:27;;;;;;;3.43;3.07;;;3.50;99.90;;;;;;4993504;28;20243;-52
2021/11/28 04:19:54;;;;;;;3.17;2.70;;;3.50;99.90;;;;;;4993448;28;20185;-50
2021/11/28 04:22:21;;;;;;;2.97;2.67;;;3.50;99.90;;;;;;4993510;28;20177;-51
2021/11/28 04:24:47;;;;;;;3.00;2.70;;;3.50;99.90;;;;;;4993184;28;20169;-52
2021/11/28 04:27:13;;;;;;;3.17;2.87;;;3.50;99.90;;;;;;4993070;28;20247;-53
2021/11/28 04:29:38;;;;;;;3.20;2.90;;;3.50;99.90;;;;;;4993525;28;20177;-52
2021/11/28 04:32:04;;;;;;;3.23;2.73;;;3.50;99.90;;;;;;4993314;28;20178;-51
2021/11/28 04:34:30;;;;;;;3.07;2.77;;;3.60;99.90;;;;;;4990966;28;20181;-52
2021/11/28 04:36:56;;;;;;;3.13;2.83;;;3.50;99.90;;;;;;4992803;28;20208;-53
2021/11/28 04:39:22;;;;;;;2.97;2.70;;;3.50;99.90;;;;;;4993231;28;20545;-52
2021/11/28 04:41:47;;;;;;;2.90;2.67;;;3.50;99.90;;;;;;4992981;28;20556;-52
2021/11/28 04:44:13;;;;;;;3.20;2.90;;;3.50;99.90;;;;;;4993316;28;20268;-49
2021/11/28 04:46:39;;;;;;;2.93;2.73;;;3.50;99.90;;;;;;4992576;28;20197;-48
2021/11/28 04:49:05;;;;;;;2.73;2.53;;;3.50;99.90;;;;;;4992908;28;20231;-52
2021/11/28 04:51:31;;;;;;;3.17;2.90;;;3.50;99.90;;;;;;4992989;28;20177;-49
2021/11/28 04:53:57;;;;;;;3.10;2.80;;;3.50;99.90;;;;;;4992861;28;20177;-52
2021/11/28 04:56:24;;;;;;;3.23;2.93;;;3.50;99.90;;;;;;4992610;28;20619;-52
2021/11/28 04:58:49;;;;;;;2.77;2.57;;;3.50;99.90;;;;;;4992655;28;20185;-50
2021/11/28 05:01:15;;;;;;;3.50;3.20;;;3.50;99.90;;;;;;4993032;28;20180;-52
2021/11/28 05:03:41;;;;;;;3.40;3.10;;;3.50;99.90;;;;;;4990135;28;20181;-49
2021/11/28 05:06:06;;;;;;;3.10;2.80;;;3.50;99.90;;;;;;4988974;28;20228;-52
2021/11/28 05:08:32;;;;;;;2.90;2.70;;;3.50;99.90;;;;;;4984107;28;20212;-52
2021/11/28 05:10:58;;;;;;;2.63;2.43;;;3.50;99.90;;;;;;4992908;28;20212;-47
2021/11/28 05:13:23;;;;;;;2.50;2.30;;;4.00;99.90;;;;;;4992526;28;20169;-51
2021/11/28 05:15:49;;;;;;;2.53;2.33;;;3.40;99.90;;;;;;4992174;28;20213;-50
2021/11/28 05:18:14;;;;;;;2.50;2.30;;;3.40;99.90;;;;;;4991994;28;20652;-51
2021/11/28 05:20:40;;;;;;;2.30;2.10;;;3.40;99.90;;;;;;4992341;28;20177;-52
2021/11/28 05:23:05;;;;;;;2.40;2.20;;;3.40;99.90;;;;;;4992628;28;20173;-50
2021/11/28 05:25:31;;;;;;;2.20;2.10;;;3.40;99.90;;;;;;4991887;28;20205;-52
2021/11/28 05:27:57;;;;;;;2.77;2.50;;;3.40;99.90;;;;;;4992462;28;20204;-51
2021/11/28 05:30:22;;;;;;;2.47;2.27;;;3.40;99.90;;;;;;4992326;28;20161;-52
2021/11/28 05:32:48;;;;;;;2.00;1.87;;;3.40;99.90;;;;;;4974967;28;20196;-52
2021/11/28 05:35:13;;;;;;;1.97;1.80;;;3.40;99.90;;;;;;4991918;28;20308;-49
2021/11/28 05:37:39;;;;;;;1.63;1.53;;;3.30;99.90;;;;;;4992291;28;20176;-52
2021/11/28 05:40:05;;;;;;;2.00;1.90;;;3.40;99.90;;;;;;4992481;28;20176;-52
2021/11/28 05:42:31;;;;;;;1.80;1.70;;;3.30;99.90;;;;;;4992103;28;20690;-52
2021/11/28 05:44:57;;;;;;;1.80;1.70;;;3.30;99.90;;;;;;4992149;28;20180;-52
2021/11/28 05:47:22;;;;;;;1.70;1.60;;;3.30;99.90;;;;;;4991994;28;20197;-51
2021/11/28 05:49:48;;;;;;;1.60;1.50;;;3.30;99.90;;;;;;4992195;28;20166;-52
2021/11/28 05:52:14;;;;;;;1.43;1.33;;;3.30;99.90;;;;;;4992149;28;20169;-51
2021/11/28 05:54:39;;;;;;;1.60;1.50;;;3.30;99.90;;;;;;4992020;28;20180;-52
2021/11/28 05:57:05;;;;;;;1.70;1.60;;;3.30;99.90;;;;;;4991998;28;20193;-48
2021/11/28 05:59:31;;;;;;;1.53;1.43;;;3.30;99.90;;;;;;4992220;28;20169;-52
2021/11/28 06:01:57;;;;;;;1.57;1.47;;;3.30;99.90;;;;;;4992216;28;20173;-51
2021/11/28 06:04:23;;;;;;;1.60;1.50;;;3.20;99.90;;;;;;4992100;28;20178;-50
2021/11/28 06:06:48;;;;;;;1.60;1.50;;;3.20;99.90;;;;;;4974310;28;20242;-52
2021/11/28 06:09:14;;;;;;;1.47;1.37;;;3.20;99.90;;;;;;4991865;28;20204;-52
2021/11/28 06:11:39;;;;;;;1.40;1.30;;;3.20;99.90;;;;;;4992170;28;20660;-52
2021/11/28 06:14:05;;;;;;;1.63;1.53;;;3.20;99.90;;;;;;4992005;28;20174;-53
2021/11/28 06:16:31;;;;;;;1.90;1.80;;;3.30;99.90;;;;;;4991566;28;20200;-50
2021/11/28 06:18:57;;;;;;;1.60;1.50;;;3.20;99.90;;;;;;4991794;28;20180;-51
2021/11/28 06:21:22;;;;;;;1.57;1.47;;;3.20;99.90;;;;;;4992093;28;20173;-49
2021/11/28 06:23:48;;;;;;;1.80;1.70;;;3.20;99.90;;;;;;4991922;28;20540;-52
2021/11/28 06:26:14;;;;;;;1.80;1.70;;;3.20;99.90;;;;;;4991699;28;20205;-51
2021/11/28 06:28:40;;;;;;;1.60;1.50;;;3.20;99.90;;;;;;4991736;28;20263;-52
2021/11/28 06:31:05;;;;;;;1.37;1.27;;;3.30;99.90;;;;;;4994939;28;20204;-53
2021/11/28 06:33:31;;;;;;;1.80;1.70;;;3.20;99.90;;;;;;4995649;28;20171;-51
2021/11/28 06:35:58;;;;;;;1.60;1.50;;;3.20;99.90;;;;;;4995094;28;20193;-51
2021/11/28 06:38:24;;;;;;;1.30;1.20;;;3.20;99.90;;;;;;4995539;28;20178;-49
2021/11/28 06:40:49;;;;;;;1.30;1.20;;;3.20;99.90;;;;;;4995382;28;20648;-50
2021/11/28 06:43:15;;;;;;;1.27;1.23;;;3.20;99.90;;;;;;4995430;28;20640;-51
2021/11/28 06:45:41;;;;;;;1.80;1.70;;;3.20;99.90;;;;;;4995071;28;20193;-52
2021/11/28 06:48:07;;;;;;;1.53;1.43;;;3.20;99.90;;;;;;4995209;28;20263;-49
2021/11/28 06:50:32;;;;;;;1.90;1.80;;;3.20;99.90;;;;;;4989489;28;20652;-50
2021/11/28 06:52:58;;;;;;;1.63;1.53;;;3.20;99.90;;;;;;4995138;28;20181;-52
2021/11/28 06:55:24;;;;;;;1.80;1.70;;;3.20;99.90;;;;;;4994859;28;20196;-53
2021/11/28 06:57:49;;;;;;;1.70;1.60;;;3.30;99.90;;;;;;4977643;28;20173;-50
2021/11/28 07:00:17;;;;;;;1.63;1.53;;;3.20;99.90;;;;;;4995217;28;20529;-51
2021/11/28 07:02:42;;;;;;;1.80;1.70;;;3.30;99.90;;;;;;4994894;28;20174;-51
2021/11/28 07:05:08;;;;;;;1.70;1.60;;;3.30;99.90;;;;;;4994776;28;20177;-52
2021/11/28 07:07:34;;;;;;;2.10;1.83;;;3.30;99.90;;;;;;4994766;28;20282;-52
2021/11/28 07:09:59;;;;;;;1.70;1.60;;;3.30;99.90;;;;;;4995086;28;20250;-53
2021/11/28 07:12:25;;;;;;;1.50;1.40;;;3.30;99.90;;;;;;4994771;28;20165;-52
2021/11/28 07:14:50;;;;;;;1.40;1.30;;;3.30;99.90;;;;;;4994648;28;20176;-53
2021/11/28 07:17:17;;;;;;;1.53;1.43;;;3.30;99.90;;;;;;4994412;28;20204;-53
2021/11/28 07:19:43;;;;;;;1.13;1.13;;;3.30;99.90;;;;;;4994801;28;20227;-53
2021/11/28 07:22:09;;;;;;;1.50;1.40;;;3.30;99.90;;;;;;4994708;28;20165;-51
2021/11/28 07:24:35;;;;;;;1.40;1.30;;;3.30;99.90;;;;;;4994059;28;20184;-50
2021/11/28 07:27:01;;;;;;;1.57;1.40;;;3.30;99.90;;;;;;4994576;28;20564;-52
2021/11/28 07:29:26;;;;;;;1.40;1.30;;;3.30;99.90;;;;;;4994353;28;20283;-52
2021/11/28 07:31:52;;;;;;;1.00;1.00;;;3.30;99.90;;;;;;4994593;28;20252;-53
2021/11/28 07:34:17;;;;;;;1.40;1.30;;;3.30;99.90;;;;;;4994272;28;20529;-50
2021/11/28 07:36:43;;;;;;;1.20;1.20;;;3.30;99.90;;;;;;4994264;28;20193;-53
2021/11/28 07:39:09;;;;;;;1.43;1.33;;;3.30;99.90;;;;;;4994207;28;20205;-49
2021/11/28 07:41:36;;;;;;;1.40;1.30;;;3.30;99.90;;;;;;4993790;28;20197;-51
2021/11/28 07:44:02;;;;;;;1.27;1.27;;;3.30;99.90;;;;;;4994928;28;20195;-53
2021/11/28 07:46:28;;;;;;;1.30;1.20;;;3.30;99.90;;;;;;5004720;28;20193;-51
2021/11/28 07:48:54;;;;;;;1.10;1.00;;;3.20;99.90;;;;;;4993989;28;20209;-49
2021/11/28 07:51:20;;;;;;;1.17;1.17;;;3.30;99.90;;;;;;4993817;28;20166;-52
2021/11/28 07:53:46;;;;;;;1.17;1.17;;;3.30;99.90;;;;;;4994111;28;20226;-52
2021/11/28 07:56:12;;;;;;;1.10;1.10;;;3.30;99.90;;;;;;4993369;28;20651;-50
2021/11/28 07:58:38;;;;;;;0.90;0.90;;;4.50;99.90;;;;;;4994016;28;20201;-51
2021/11/28 08:01:04;;;;;;;1.17;1.17;;;3.30;99.90;;;;;;5001157;28;20219;-45
2021/11/28 08:03:30;;;;;;;1.40;1.30;;;3.30;99.90;;;;;;4999342;28;20633;-45
2021/11/28 08:05:58;;;;;;;1.23;1.17;;;3.40;99.90;;;;;;4993315;28;20197;-47
2021/11/28 08:08:27;;;;;;;1.10;1.10;;;3.40;99.90;;;;;;4993537;28;20196;-44
2021/11/28 08:10:56;;;;;;;1.23;1.20;;;3.40;99.90;;;;;;4993905;28;20180;-43
2021/11/28 08:13:21;;;;;;;1.30;1.03;;;3.40;99.90;;;;;;4993160;28;20177;-44
2021/11/28 08:15:47;;;;;;;1.37;1.10;;;3.40;99.90;;;;;;4992238;28;20215;-44
2021/11/28 08:18:13;;;;;;;1.10;1.10;;;3.40;99.90;;;;;;4988186;28;20185;-44
2021/11/28 08:20:39;;;;;;;1.27;1.20;;;3.40;99.90;;;;;;4993084;28;20217;-44
2021/11/28 08:23:05;;;;;;;1.47;1.37;;;3.50;99.90;;;;;;4993206;28;20216;-44
2021/11/28 08:25:31;;;;;;;1.30;1.20;;;3.50;99.90;;;;;;5045343;23;20235;-50
2021/11/28 08:27:57;;;;;;;1.00;1.00;;;3.50;99.90;;;;;;5064267;28;20250;-51
2021/11/28 08:30:23;;;;;;;1.40;1.37;;;3.40;99.90;;;;;;5065470;28;20217;-45
2021/11/28 08:32:50;;;;;;;1.17;1.17;;;3.40;99.90;;;;;;5060502;28;20258;-47
2021/11/28 08:35:17;;;;;;;1.40;1.30;;;3.40;99.90;;;;;;5041806;28;20187;-48
2021/11/28 08:37:43;;;;;;;1.13;1.10;;;3.50;99.90;;;;;;5051785;28;20171;-45
2021/11/28 08:40:12;;;;;;;1.30;1.20;;;3.50;99.90;;;;;;5051378;28;20255;-46
2021/11/28 08:42:38;;;;;;;0.83;0.83;;;3.50;99.90;;;;;;5034429;28;20171;-48
2021/11/28 08:45:08;;;;;;;1.20;1.20;;;3.50;99.90;;;;;;5039868;28;20168;-43
2021/11/28 08:47:34;;;;;;;1.00;1.00;;;3.50;99.90;;;;;;5013904;28;20643;-44
2021/11/28 08:50:00;;;;;;;1.10;1.10;;;3.60;99.90;;;;;;5032226;28;20164;-41
2021/11/28 08:52:26;;;;;;;1.30;1.20;;;3.60;99.90;;;;;;5031835;28;20167;-44
2021/11/28 08:54:52;;;;;;;1.07;1.07;;;3.70;99.90;;;;;;5030994;28;20195;-47
2021/11/28 08:57:18;;;;;;;1.67;1.57;;;3.80;99.90;;;;;;5031723;28;20242;-45
2021/11/28 08:59:44;;;;;;;1.17;1.07;;;3.90;99.90;;;;;;5032753;28;20175;-47
2021/11/28 09:02:10;;;;;;;1.10;1.10;;;4.00;99.90;;;;;;5046088;28;20171;-48
2021/11/28 09:04:37;;;;;;;1.30;1.20;;;4.10;99.90;;;;;;5051072;28;20531;-42
2021/11/28 09:07:04;;;;;;;0.97;0.90;;;4.30;99.90;;;;;;5052058;28;20757;-50
2021/11/28 09:09:29;;;;;;;1.23;1.20;;;4.40;99.90;;;;;;5054411;28;20210;-49
2021/11/28 09:11:56;;;;;;;1.10;1.10;;;4.50;99.90;;;;;;5061465;28;20174;-48
2021/11/28 09:14:21;;;;;;;0.90;0.90;;;4.60;99.90;;;;;;5035761;28;20261;-42
2021/11/28 09:16:47;;;;;;;1.13;1.10;;;4.60;99.90;;;;;;5052713;28;20274;-52
2021/11/28 09:19:20;;;;;;;1.30;1.30;;;4.70;99.90;;;;;;5062392;28;20168;-52
2021/11/28 09:21:47;;;;;;;2.57;1.30;;;4.70;99.90;;;;;;5050685;28;20715;-43
2021/11/28 09:26:56;;;;;;;1.20;1.20;;;4.60;99.90;;;;;;5047025;28;20218;-48
2021/11/28 09:29:22;;;;;;;1.27;1.17;;;4.60;99.90;;;;;;5051070;28;20274;-42
2021/11/28 09:31:48;;;;;;;1.10;1.10;;;4.60;99.90;;;;;;5050729;28;20175;-42
2021/11/28 09:34:13;;;;;;;0.90;0.90;;;4.60;99.90;;;;;;5049252;28;20167;-47
2021/11/28 09:36:39;;;;;;;1.23;1.13;;;4.60;99.90;;;;;;5047639;28;20203;-48
2021/11/28 09:39:06;;;;;;;1.40;1.30;;;4.60;99.90;;;;;;5050807;28;20178;-45
2021/11/28 09:41:35;;;;;;;1.10;1.10;;;4.50;99.90;;;;;;5050859;28;20573;-48
2021/11/28 09:44:07;;;;;;;1.40;1.30;;;4.50;99.90;;;;;;5047671;28;20168;-49
2021/11/28 09:46:33;;;;;;;1.47;1.37;;;4.50;99.90;;;;;;5050514;28;20255;-46
2021/11/28 09:49:02;;;;;;;1.50;1.20;;;4.50;99.90;;;;;;5049960;28;20195;-43
2021/11/28 09:51:28;;;;;;;1.20;1.20;;;4.50;99.90;;;;;;5041772;28;20263;-42
2021/11/28 09:54:03;;;;;;;1.50;1.40;;;4.50;99.90;;;;;;5047605;28;20195;-47
2021/11/28 09:56:36;;;;;;;1.23;1.20;;;4.50;99.90;;;;;;5045047;28;20183;-46
2021/11/28 09:59:03;;;;;;;1.60;1.50;;;4.50;99.90;;;;;;5040104;28;20186;-46
2021/11/28 10:01:32;;;;;;;1.40;1.30;;;4.50;99.90;;;;;;5044384;28;20171;-45
2021/11/28 10:03:59;;;;;;;1.40;1.30;;;4.50;99.90;;;;;;5050884;28;20654;-42
2021/11/28 10:06:26;;;;;;;1.53;1.43;;;5.10;99.90;;;;;;5053013;28;20237;-46
2021/11/28 10:08:52;;;;;;;1.57;1.47;;;4.50;99.90;;;;;;5054168;28;20186;-42
2021/11/28 10:11:17;;;;;;;1.37;1.27;;;4.50;99.90;;;;;;5054780;28;20179;-49
2021/11/28 10:13:48;;;;;;;1.80;1.70;;;4.60;99.90;;;;;;5054315;28;20187;-50
2021/11/28 10:16:14;;;;;;;1.60;1.33;;;4.60;99.90;;;;;;5054511;28;20191;-48
2021/11/28 10:18:40;;;;;;;1.60;1.50;;;4.60;99.90;;;;;;5054598;28;20177;-48
2021/11/28 10:21:06;;;;;;;1.63;1.53;;;4.60;99.90;;;;;;5054571;28;20646;-46
2021/11/28 10:23:32;;;;;;;1.53;1.43;;;4.60;99.90;;;;;;5053421;28;20193;-43
2021/11/28 10:26:17;;;;;;;1.77;1.67;;;4.60;99.90;;;;;;5053551;28;20230;-45
2021/11/28 10:29:05;;;;;;;1.50;1.40;;;4.60;99.90;;;;;;5054567;28;20215;-47
2021/11/28 10:31:40;;;;;;;1.57;1.40;;;4.60;99.90;;;;;;5054184;28;20182;-47
2021/11/28 10:34:16;;;;;;;1.40;1.30;;;4.60;99.90;;;;;;5054578;28;20642;-46
2021/11/28 10:36:42;;;;;;;1.33;1.23;;;4.60;99.90;;;;;;5053904;28;20201;-48
2021/11/28 10:39:18;;;;;;;1.40;1.30;;;4.60;99.90;;;;;;5054155;28;20553;-48
2021/11/28 10:41:53;;;;;;;1.50;1.40;;;4.60;99.90;;;;;;5054117;28;20189;-52
2021/11/28 10:44:20;;;;;;;1.60;1.50;;;4.60;99.90;;;;;;5054001;28;20206;-46
2021/11/28 10:46:46;;;;;;;1.87;1.73;;;4.50;99.90;;;;;;5053704;28;20221;-48
2021/11/28 10:49:18;;;;;;;1.60;1.50;;;4.50;99.90;;;;;;5053812;28;20205;-46
2021/11/28 10:51:53;;;;;;;1.20;1.17;;;4.50;99.90;;;;;;5054373;28;20179;-52
2021/11/28 10:54:27;;;;;;;1.70;1.60;;;4.50;99.90;;;;;;5054016;28;20224;-46
2021/11/28 10:57:05;;;;;;;1.63;1.50;;;4.50;99.90;;;;;;5053785;28;20266;-47
2021/11/28 10:59:33;;;;;;;1.50;1.40;;;4.60;99.90;;;;;;5044379;28;20184;-46
2021/11/28 11:01:59;;;;;;;1.53;1.43;;;4.60;99.90;;;;;;5033484;28;20210;-39
2021/11/28 11:04:28;;;;;;;1.83;1.73;;;4.50;99.90;;;;;;5044755;28;20626;-45
2021/11/28 11:07:13;;;;;;;1.50;1.40;;;4.60;99.90;;;;;;5053442;28;20201;-44
2021/11/28 11:09:40;;;;;;;1.30;1.20;;;4.60;99.90;;;;;;5053682;28;20229;-48
2021/11/28 11:12:33;;;;;;;1.70;1.60;;;4.60;99.90;;;;;;5053765;28;20669;-48
2021/11/28 11:14:59;;;;;;;1.40;1.30;;;4.60;99.90;;;;;;5042982;28;20175;-48
2021/11/28 11:17:28;;;;;;;1.80;1.50;;;4.60;99.90;;;;;;5046130;28;20542;-50
2021/11/28 11:19:55;;;;;;;1.57;1.47;;;4.60;99.90;;;;;;5034275;28;20259;-49
2021/11/28 11:22:26;;;;;;;1.70;1.60;;;4.60;99.90;;;;;;5042087;28;20182;-48
2021/11/28 11:24:58;;;;;;;1.77;1.67;;;4.60;99.90;;;;;;5052865;28;20538;-47
2021/11/28 11:27:31;;;;;;;1.87;1.77;;;4.60;99.90;;;;;;5053328;28;20190;-48
2021/11/28 11:30:00;;;;;;;2.33;2.10;;;4.60;99.90;;;;;;5052858;28;20183;-47
2021/11/28 11:32:50;;;;;;;1.90;1.80;;;4.60;99.90;;;;;;5049920;28;20270;-48
2021/11/28 11:35:15;;;;;;;1.87;1.77;;;4.60;99.90;;;;;;5050174;28;20210;-46
2021/11/28 11:37:41;;;;;;;1.80;1.70;;;4.60;99.90;;;;;;5051194;28;20183;-46
2021/11/28 11:40:13;;;;;;;1.80;1.70;;;4.60;99.90;;;;;;5053683;28;20642;-44
2021/11/28 11:42:41;;;;;;;2.30;2.10;;;4.60;99.90;;;;;;5053002;28;20175;-43
2021/11/28 11:45:10;;;;;;;3.60;2.57;;;4.60;99.90;;;;;;5052764;28;20190;-48
2021/11/28 11:47:36;;;;;;;2.83;2.30;;;4.60;99.90;;;;;;5030676;28;20183;-50
2021/11/28 11:50:03;;;;;;;3.00;2.60;;;4.70;99.90;;;;;;5032272;28;20171;-47
2021/11/28 11:52:28;;;;;;;2.50;2.20;;;4.70;99.90;;;;;;5035502;28;20171;-43
2021/11/28 11:54:58;;;;;;;3.03;2.33;;;4.70;99.90;;;;;;5020599;28;20190;-48
2021/11/28 11:57:38;;;;;;;2.27;2.07;;;4.70;99.90;;;;;;5029528;28;20167;-45
2021/11/28 12:00:13;;;;;;;2.30;2.10;;;4.70;99.90;;;;;;5056905;28;20304;-42
2021/11/28 12:02:50;;;;;;;2.13;1.90;;;4.70;99.90;;;;;;5043939;28;20622;-50
2021/11/28 12:05:24;;;;;;;1.90;1.77;;;4.60;99.90;;;;;;5059067;28;20206;-47
2021/11/28 12:07:53;;;;;;;2.07;1.90;;;4.60;99.90;;;;;;5052169;28;20229;-48
2021/11/28 12:10:36;;;;;;;2.20;2.00;;;4.70;99.90;;;;;;5052137;28;20634;-46
2021/11/28 12:13:06;;;;;;;1.77;1.67;;;4.70;99.90;;;;;;5051992;28;20539;-48
2021/11/28 12:15:39;;;;;;;1.60;1.50;;;4.70;99.90;;;;;;5052384;28;20274;-51
2021/11/28 12:18:06;;;;;;;2.07;1.97;;;4.70;99.90;;;;;;5048585;28;20681;-41
2021/11/28 12:20:43;;;;;;;2.27;1.80;;;4.80;99.90;;;;;;5030381;28;20183;-45
2021/11/28 12:23:10;;;;;;;1.73;1.63;;;4.80;99.90;;;;;;5041649;28;20175;-45
2021/11/28 12:25:37;;;;;;;1.77;1.67;;;4.80;99.90;;;;;;5031693;28;20690;-47
2021/11/28 12:28:21;;;;;;;2.13;1.83;;;4.80;99.90;;;;;;5032163;28;20204;-45
2021/11/28 12:31:01;;;;;;;1.63;1.53;;;4.90;99.90;;;;;;5032469;28;20175;-47
2021/11/28 12:33:48;;;;;;;1.60;1.50;;;4.90;99.90;;;;;;5032517;28;20187;-47
2021/11/28 12:36:33;;;;;;;1.67;1.57;;;4.90;99.90;;;;;;5031907;28;20685;-48
2021/11/28 12:39:05;;;;;;;1.47;1.37;;;5.00;99.90;;;;;;5031311;28;20245;-44
2021/11/28 12:41:51;;;;;;;1.50;1.40;;;5.10;99.90;;;;;;5031470;28;20226;-42
2021/11/28 12:44:32;;;;;;;1.77;1.33;;;5.20;99.90;;;;;;5031999;28;20188;-50
2021/11/28 12:47:10;;;;;;;1.47;1.37;;;5.30;99.90;;;;;;5032232;28;20191;-46
2021/11/28 12:50:15;;;;;;;1.20;1.10;;;5.30;99.90;;;;;;5031454;28;20214;-44
2021/11/28 12:52:45;;;;;;;1.53;1.43;;;5.40;99.90;;;;;;5035422;28;20187;-49
2021/11/28 12:55:20;;;;;;;1.43;1.20;;;5.40;99.90;;;;;;5050893;28;20538;-43
2021/11/28 12:58:04;;;;;;;1.67;1.40;;;5.40;99.90;;;;;;5050804;28;20186;-45
2021/11/28 13:00:33;;;;;;;1.33;1.23;;;5.50;99.90;;;;;;5056171;28;20163;-49
2021/11/28 13:03:10;;;;;;;1.60;1.50;;;5.50;99.90;;;;;;5054218;28;20596;-42
2021/11/28 13:05:50;;;;;;;1.77;1.67;;;5.60;99.90;;;;;;5050500;28;20221;-44
2021/11/28 13:08:15;;;;;;;1.87;1.73;;;5.60;99.90;;;;;;5048532;28;20197;-43